sensor_id;sensor_type;location;lat;lon;timestamp;P1;durP1;ratioP1;P2;durP2;ratioP2
31091;SDS011;67728;53.122;12.776;2023-09-19T00:00:26;1379.60;;;999.90;;
31091;SDS011;67728;53.122;12.776;2023-09-19T00:01:58;1384.40;;;999.90;;
31091;SDS011;67728;53.122;12.776;2023-09-19T00:03:28;1390.57;;;999.90;;
31091;SDS011;67728;53.122;12.776;2023-09-19T00:05:01;1384.73;;;999.90;;
31091;SDS011;67728;53.122;12.776;2023-09-19T00:06:33;1395.83;;;999.90;;
31091;SDS011;67728;53.122;12.776;2023-09-19T00:08:06;1386.03;;;999.90;;
31091;SDS011;67728;53.122;12.776;2023-09-19T00:09:37;1366.63;;;999.90;;
31091;SDS011;67728;53.122;12.776;2023-09-19T00:11:08;1360.83;;;999.90;;
31091;SDS011;67728;53.122;12.776;2023-09-19T00:12:43;1367.60;;;999.90;;
31091;SDS011;67728;53.122;12.776;2023-09-19T00:14:15;1366.67;;;999.90;;
31091;SDS011;67728;53.122;12.776;2023-09-19T00:15:47;1369.87;;;999.90;;
31091;SDS011;67728;53.122;12.776;2023-09-19T00:17:18;1379.30;;;999.90;;
31091;SDS011;67728;53.122;12.776;2023-09-19T00:18:50;1386.97;;;999.90;;
31091;SDS011;67728;53.122;12.776;2023-09-19T00:20:20;1371.17;;;999.90;;
31091;SDS011;67728;53.122;12.776;2023-09-19T00:21:53;1380.93;;;999.90;;
31091;SDS011;67728;53.122;12.776;2023-09-19T00:23:23;1385.60;;;999.90;;
31091;SDS011;67728;53.122;12.776;2023-09-19T00:24:55;1370.80;;;999.90;;
31091;SDS011;67728;53.122;12.776;2023-09-19T00:26:26;1387.37;;;999.90;;
31091;SDS011;67728;53.122;12.776;2023-09-19T00:28:02;1366.53;;;999.90;;
31091;SDS011;67728;53.122;12.776;2023-09-19T00:29:33;1375.23;;;999.90;;
31091;SDS011;67728;53.122;12.776;2023-09-19T00:31:07;1368.27;;;999.90;;
31091;SDS011;67728;53.122;12.776;2023-09-19T00:32:40;1392.07;;;999.90;;
31091;SDS011;67728;53.122;12.776;2023-09-19T00:34:11;1377.43;;;999.90;;
31091;SDS011;67728;53.122;12.776;2023-09-19T00:35:46;1365.53;;;999.90;;
31091;SDS011;67728;53.122;12.776;2023-09-19T00:37:17;1363.73;;;999.90;;
31091;SDS011;67728;53.122;12.776;2023-09-19T00:38:49;1368.43;;;999.90;;
31091;SDS011;67728;53.122;12.776;2023-09-19T00:40:21;1365.40;;;999.90;;
31091;SDS011;67728;53.122;12.776;2023-09-19T00:41:52;1359.17;;;999.90;;
31091;SDS011;67728;53.122;12.776;2023-09-19T00:43:26;1365.43;;;999.90;;
31091;SDS011;67728;53.122;12.776;2023-09-19T00:44:57;1349.87;;;999.90;;
31091;SDS011;67728;53.122;12.776;2023-09-19T00:46:29;1368.97;;;999.90;;
31091;SDS011;67728;53.122;12.776;2023-09-19T00:48:00;1360.00;;;999.90;;
31091;SDS011;67728;53.122;12.776;2023-09-19T00:49:40;1356.30;;;999.90;;
31091;SDS011;67728;53.122;12.776;2023-09-19T00:51:12;1364.47;;;999.90;;
31091;SDS011;67728;53.122;12.776;2023-09-19T00:52:46;1351.23;;;999.90;;
31091;SDS011;67728;53.122;12.776;2023-09-19T00:54:19;1367.50;;;999.90;;
31091;SDS011;67728;53.122;12.776;2023-09-19T00:55:51;1360.37;;;999.90;;
31091;SDS011;67728;53.122;12.776;2023-09-19T00:57:22;1363.50;;;999.90;;
31091;SDS011;67728;53.122;12.776;2023-09-19T00:58:56;1367.23;;;999.90;;
31091;SDS011;67728;53.122;12.776;2023-09-19T01:00:28;1370.93;;;999.90;;
31091;SDS011;67728;53.122;12.776;2023-09-19T01:01:59;1362.03;;;999.90;;
31091;SDS011;67728;53.122;12.776;2023-09-19T01:03:32;1363.23;;;999.90;;
31091;SDS011;67728;53.122;12.776;2023-09-19T01:05:03;1362.03;;;999.90;;
31091;SDS011;67728;53.122;12.776;2023-09-19T01:06:36;1364.50;;;999.90;;
31091;SDS011;67728;53.122;12.776;2023-09-19T01:08:09;1358.57;;;999.90;;
31091;SDS011;67728;53.122;12.776;2023-09-19T01:09:41;1355.13;;;999.90;;
31091;SDS011;67728;53.122;12.776;2023-09-19T01:11:13;1357.67;;;999.90;;
31091;SDS011;67728;53.122;12.776;2023-09-19T01:12:54;1360.07;;;999.90;;
31091;SDS011;67728;53.122;12.776;2023-09-19T01:14:38;1358.37;;;999.90;;
31091;SDS011;67728;53.122;12.776;2023-09-19T01:16:19;1355.73;;;999.90;;
31091;SDS011;67728;53.122;12.776;2023-09-19T01:18:00;1356.67;;;999.90;;
31091;SDS011;67728;53.122;12.776;2023-09-19T01:21:55;1362.17;;;999.90;;
31091;SDS011;67728;53.122;12.776;2023-09-19T01:23:39;1363.17;;;999.90;;
31091;SDS011;67728;53.122;12.776;2023-09-19T01:27:43;1373.47;;;999.90;;
31091;SDS011;67728;53.122;12.776;2023-09-19T01:29:39;1365.93;;;999.90;;
31091;SDS011;67728;53.122;12.776;2023-09-19T01:31:17;1368.37;;;999.90;;
31091;SDS011;67728;53.122;12.776;2023-09-19T01:32:49;1359.07;;;999.90;;
31091;SDS011;67728;53.122;12.776;2023-09-19T01:34:22;1365.67;;;999.90;;
31091;SDS011;67728;53.122;12.776;2023-09-19T01:35:54;1366.17;;;999.90;;
31091;SDS011;67728;53.122;12.776;2023-09-19T01:37:28;1376.67;;;999.90;;
31091;SDS011;67728;53.122;12.776;2023-09-19T01:39:02;1367.87;;;999.90;;
31091;SDS011;67728;53.122;12.776;2023-09-19T01:40:41;1370.60;;;999.90;;
31091;SDS011;67728;53.122;12.776;2023-09-19T01:42:16;1375.03;;;999.90;;
31091;SDS011;67728;53.122;12.776;2023-09-19T01:43:54;1366.80;;;999.90;;
31091;SDS011;67728;53.122;12.776;2023-09-19T01:45:29;1373.90;;;999.90;;
31091;SDS011;67728;53.122;12.776;2023-09-19T01:47:08;1379.57;;;999.90;;
31091;SDS011;67728;53.122;12.776;2023-09-19T01:48:49;1379.07;;;999.90;;
31091;SDS011;67728;53.122;12.776;2023-09-19T01:50:29;1384.17;;;999.90;;
31091;SDS011;67728;53.122;12.776;2023-09-19T01:52:04;1372.23;;;999.90;;
31091;SDS011;67728;53.122;12.776;2023-09-19T01:53:41;1371.77;;;999.90;;
31091;SDS011;67728;53.122;12.776;2023-09-19T01:55:21;1380.83;;;999.90;;
31091;SDS011;67728;53.122;12.776;2023-09-19T01:56:57;1371.43;;;999.90;;
31091;SDS011;67728;53.122;12.776;2023-09-19T01:58:45;1381.67;;;999.90;;
31091;SDS011;67728;53.122;12.776;2023-09-19T02:00:19;1383.70;;;999.90;;
31091;SDS011;67728;53.122;12.776;2023-09-19T02:01:53;1378.83;;;999.90;;
31091;SDS011;67728;53.122;12.776;2023-09-19T02:03:28;1377.43;;;999.90;;
31091;SDS011;67728;53.122;12.776;2023-09-19T02:05:02;1378.57;;;999.90;;
31091;SDS011;67728;53.122;12.776;2023-09-19T02:06:33;1390.47;;;999.90;;
31091;SDS011;67728;53.122;12.776;2023-09-19T02:08:05;1378.00;;;999.90;;
31091;SDS011;67728;53.122;12.776;2023-09-19T02:09:36;1387.13;;;999.90;;
31091;SDS011;67728;53.122;12.776;2023-09-19T02:11:09;1383.37;;;999.90;;
31091;SDS011;67728;53.122;12.776;2023-09-19T02:12:39;1377.80;;;999.90;;
31091;SDS011;67728;53.122;12.776;2023-09-19T02:14:11;1375.13;;;999.90;;
31091;SDS011;67728;53.122;12.776;2023-09-19T02:15:42;1382.27;;;999.90;;
31091;SDS011;67728;53.122;12.776;2023-09-19T02:17:14;1387.73;;;999.90;;
31091;SDS011;67728;53.122;12.776;2023-09-19T02:18:46;1379.47;;;999.90;;
31091;SDS011;67728;53.122;12.776;2023-09-19T02:20:17;1383.40;;;999.90;;
31091;SDS011;67728;53.122;12.776;2023-09-19T02:21:50;1382.23;;;999.90;;
31091;SDS011;67728;53.122;12.776;2023-09-19T02:23:22;1387.60;;;999.90;;
31091;SDS011;67728;53.122;12.776;2023-09-19T02:24:53;1384.03;;;999.90;;
31091;SDS011;67728;53.122;12.776;2023-09-19T02:26:28;1413.13;;;999.90;;
31091;SDS011;67728;53.122;12.776;2023-09-19T02:27:59;1393.47;;;999.90;;
31091;SDS011;67728;53.122;12.776;2023-09-19T02:29:32;1397.37;;;999.90;;
31091;SDS011;67728;53.122;12.776;2023-09-19T02:31:04;1396.40;;;999.90;;
31091;SDS011;67728;53.122;12.776;2023-09-19T02:32:36;1396.63;;;999.90;;
31091;SDS011;67728;53.122;12.776;2023-09-19T02:34:10;1397.37;;;999.90;;
31091;SDS011;67728;53.122;12.776;2023-09-19T02:35:41;1393.70;;;999.90;;
31091;SDS011;67728;53.122;12.776;2023-09-19T02:37:12;1402.87;;;999.90;;
31091;SDS011;67728;53.122;12.776;2023-09-19T02:38:46;1403.13;;;999.90;;
31091;SDS011;67728;53.122;12.776;2023-09-19T02:40:18;1405.27;;;999.90;;
31091;SDS011;67728;53.122;12.776;2023-09-19T02:41:49;1400.30;;;999.90;;
31091;SDS011;67728;53.122;12.776;2023-09-19T02:43:21;1413.70;;;999.90;;
31091;SDS011;67728;53.122;12.776;2023-09-19T02:44:52;1412.23;;;999.90;;
31091;SDS011;67728;53.122;12.776;2023-09-19T02:46:24;1418.13;;;999.90;;
31091;SDS011;67728;53.122;12.776;2023-09-19T02:47:56;1418.70;;;999.90;;
31091;SDS011;67728;53.122;12.776;2023-09-19T02:49:28;1412.87;;;999.90;;
31091;SDS011;67728;53.122;12.776;2023-09-19T02:51:02;1415.00;;;999.90;;
31091;SDS011;67728;53.122;12.776;2023-09-19T02:52:35;1408.07;;;999.90;;
31091;SDS011;67728;53.122;12.776;2023-09-19T02:54:07;1401.70;;;999.90;;
31091;SDS011;67728;53.122;12.776;2023-09-19T02:55:39;1395.77;;;999.90;;
31091;SDS011;67728;53.122;12.776;2023-09-19T02:57:11;1402.60;;;999.90;;
31091;SDS011;67728;53.122;12.776;2023-09-19T02:58:42;1403.97;;;999.90;;
31091;SDS011;67728;53.122;12.776;2023-09-19T03:00:14;1413.30;;;999.90;;
31091;SDS011;67728;53.122;12.776;2023-09-19T03:01:45;1410.70;;;999.90;;
31091;SDS011;67728;53.122;12.776;2023-09-19T03:03:18;1413.83;;;999.90;;
31091;SDS011;67728;53.122;12.776;2023-09-19T03:04:50;1418.33;;;999.90;;
31091;SDS011;67728;53.122;12.776;2023-09-19T03:06:22;1416.33;;;999.90;;
31091;SDS011;67728;53.122;12.776;2023-09-19T03:07:54;1412.13;;;999.90;;
31091;SDS011;67728;53.122;12.776;2023-09-19T03:09:25;1415.30;;;999.90;;
31091;SDS011;67728;53.122;12.776;2023-09-19T03:10:56;1405.23;;;999.90;;
31091;SDS011;67728;53.122;12.776;2023-09-19T03:12:28;1414.67;;;999.90;;
31091;SDS011;67728;53.122;12.776;2023-09-19T03:13:59;1418.40;;;999.90;;
31091;SDS011;67728;53.122;12.776;2023-09-19T03:15:30;1408.60;;;999.90;;
31091;SDS011;67728;53.122;12.776;2023-09-19T03:17:01;1404.50;;;999.90;;
31091;SDS011;67728;53.122;12.776;2023-09-19T03:18:34;1405.90;;;999.90;;
31091;SDS011;67728;53.122;12.776;2023-09-19T03:20:07;1412.77;;;999.90;;
31091;SDS011;67728;53.122;12.776;2023-09-19T03:21:40;1419.20;;;999.90;;
31091;SDS011;67728;53.122;12.776;2023-09-19T03:23:10;1422.67;;;999.90;;
31091;SDS011;67728;53.122;12.776;2023-09-19T03:24:43;1426.57;;;999.90;;
31091;SDS011;67728;53.122;12.776;2023-09-19T03:26:14;1424.00;;;999.90;;
31091;SDS011;67728;53.122;12.776;2023-09-19T03:27:46;1428.40;;;999.90;;
31091;SDS011;67728;53.122;12.776;2023-09-19T03:29:18;1426.10;;;999.90;;
31091;SDS011;67728;53.122;12.776;2023-09-19T03:30:57;1420.83;;;999.90;;
31091;SDS011;67728;53.122;12.776;2023-09-19T03:32:30;1430.03;;;999.90;;
31091;SDS011;67728;53.122;12.776;2023-09-19T03:34:02;1410.00;;;999.90;;
31091;SDS011;67728;53.122;12.776;2023-09-19T03:35:36;1428.37;;;999.90;;
31091;SDS011;67728;53.122;12.776;2023-09-19T03:37:07;1426.37;;;999.90;;
31091;SDS011;67728;53.122;12.776;2023-09-19T03:38:38;1425.63;;;999.90;;
31091;SDS011;67728;53.122;12.776;2023-09-19T03:40:10;1434.73;;;999.90;;
31091;SDS011;67728;53.122;12.776;2023-09-19T03:41:42;1426.37;;;999.90;;
31091;SDS011;67728;53.122;12.776;2023-09-19T03:43:13;1436.93;;;999.90;;
31091;SDS011;67728;53.122;12.776;2023-09-19T03:44:44;1433.80;;;999.90;;
31091;SDS011;67728;53.122;12.776;2023-09-19T03:46:15;1435.97;;;999.90;;
31091;SDS011;67728;53.122;12.776;2023-09-19T03:47:47;1431.17;;;999.90;;
31091;SDS011;67728;53.122;12.776;2023-09-19T03:49:18;1447.80;;;999.90;;
31091;SDS011;67728;53.122;12.776;2023-09-19T03:50:51;1435.27;;;999.90;;
31091;SDS011;67728;53.122;12.776;2023-09-19T03:52:22;1432.70;;;999.90;;
31091;SDS011;67728;53.122;12.776;2023-09-19T03:53:55;1440.97;;;999.90;;
31091;SDS011;67728;53.122;12.776;2023-09-19T03:55:26;1450.83;;;999.90;;
31091;SDS011;67728;53.122;12.776;2023-09-19T03:56:58;1437.57;;;999.90;;
31091;SDS011;67728;53.122;12.776;2023-09-19T03:58:28;1450.83;;;999.90;;
31091;SDS011;67728;53.122;12.776;2023-09-19T04:00:00;1438.47;;;999.90;;
31091;SDS011;67728;53.122;12.776;2023-09-19T04:01:31;1447.60;;;999.90;;
31091;SDS011;67728;53.122;12.776;2023-09-19T04:03:04;1451.27;;;999.90;;
31091;SDS011;67728;53.122;12.776;2023-09-19T04:04:36;1440.73;;;999.90;;
31091;SDS011;67728;53.122;12.776;2023-09-19T04:06:09;1435.60;;;999.90;;
31091;SDS011;67728;53.122;12.776;2023-09-19T04:07:41;1450.13;;;999.90;;
31091;SDS011;67728;53.122;12.776;2023-09-19T04:09:11;1447.73;;;999.90;;
31091;SDS011;67728;53.122;12.776;2023-09-19T04:10:43;1444.90;;;999.90;;
31091;SDS011;67728;53.122;12.776;2023-09-19T04:12:15;1443.30;;;999.90;;
31091;SDS011;67728;53.122;12.776;2023-09-19T04:13:48;1450.30;;;999.90;;
31091;SDS011;67728;53.122;12.776;2023-09-19T04:15:19;1462.27;;;999.90;;
31091;SDS011;67728;53.122;12.776;2023-09-19T04:16:52;1454.50;;;999.90;;
31091;SDS011;67728;53.122;12.776;2023-09-19T04:18:23;1441.00;;;999.90;;
31091;SDS011;67728;53.122;12.776;2023-09-19T04:19:55;1448.23;;;999.90;;
31091;SDS011;67728;53.122;12.776;2023-09-19T04:21:28;1448.63;;;999.90;;
31091;SDS011;67728;53.122;12.776;2023-09-19T04:22:59;1458.40;;;999.90;;
31091;SDS011;67728;53.122;12.776;2023-09-19T04:24:31;1450.97;;;999.90;;
31091;SDS011;67728;53.122;12.776;2023-09-19T04:26:02;1454.20;;;999.90;;
31091;SDS011;67728;53.122;12.776;2023-09-19T04:27:35;1442.77;;;999.90;;
31091;SDS011;67728;53.122;12.776;2023-09-19T04:29:05;1448.70;;;999.90;;
31091;SDS011;67728;53.122;12.776;2023-09-19T04:30:37;1446.83;;;999.90;;
31091;SDS011;67728;53.122;12.776;2023-09-19T04:32:10;1444.10;;;999.90;;
31091;SDS011;67728;53.122;12.776;2023-09-19T04:33:43;1450.27;;;999.90;;
31091;SDS011;67728;53.122;12.776;2023-09-19T04:35:14;1434.23;;;999.90;;
31091;SDS011;67728;53.122;12.776;2023-09-19T04:36:47;1440.23;;;999.90;;
31091;SDS011;67728;53.122;12.776;2023-09-19T04:38:17;1451.07;;;999.90;;
31091;SDS011;67728;53.122;12.776;2023-09-19T04:39:49;1449.03;;;999.90;;
31091;SDS011;67728;53.122;12.776;2023-09-19T04:41:20;1445.50;;;999.90;;
31091;SDS011;67728;53.122;12.776;2023-09-19T04:42:55;1455.37;;;999.90;;
31091;SDS011;67728;53.122;12.776;2023-09-19T04:44:26;1446.17;;;999.90;;
31091;SDS011;67728;53.122;12.776;2023-09-19T04:45:58;1448.60;;;999.90;;
31091;SDS011;67728;53.122;12.776;2023-09-19T04:47:30;1451.87;;;999.90;;
31091;SDS011;67728;53.122;12.776;2023-09-19T04:49:02;1448.03;;;999.90;;
31091;SDS011;67728;53.122;12.776;2023-09-19T04:50:33;1455.90;;;999.90;;
31091;SDS011;67728;53.122;12.776;2023-09-19T04:52:06;1437.37;;;999.90;;
31091;SDS011;67728;53.122;12.776;2023-09-19T04:53:37;1438.07;;;999.90;;
31091;SDS011;67728;53.122;12.776;2023-09-19T04:55:08;1448.50;;;999.90;;
31091;SDS011;67728;53.122;12.776;2023-09-19T04:56:40;1445.40;;;999.90;;
31091;SDS011;67728;53.122;12.776;2023-09-19T04:58:12;1449.53;;;999.90;;
31091;SDS011;67728;53.122;12.776;2023-09-19T04:59:43;1442.67;;;999.90;;
31091;SDS011;67728;53.122;12.776;2023-09-19T05:01:14;1451.33;;;999.90;;
31091;SDS011;67728;53.122;12.776;2023-09-19T05:02:48;1453.23;;;999.90;;
31091;SDS011;67728;53.122;12.776;2023-09-19T05:04:21;1475.17;;;999.90;;
31091;SDS011;67728;53.122;12.776;2023-09-19T05:05:51;1458.67;;;999.90;;
31091;SDS011;67728;53.122;12.776;2023-09-19T05:07:24;1515.00;;;999.90;;
31091;SDS011;67728;53.122;12.776;2023-09-19T05:08:56;1554.27;;;999.90;;
31091;SDS011;67728;53.122;12.776;2023-09-19T05:10:27;1485.17;;;999.90;;
31091;SDS011;67728;53.122;12.776;2023-09-19T05:11:59;1519.63;;;999.90;;
31091;SDS011;67728;53.122;12.776;2023-09-19T05:13:30;1474.17;;;999.90;;
31091;SDS011;67728;53.122;12.776;2023-09-19T05:15:02;1557.27;;;999.90;;
31091;SDS011;67728;53.122;12.776;2023-09-19T05:16:34;1443.00;;;999.90;;
31091;SDS011;67728;53.122;12.776;2023-09-19T05:18:05;1438.63;;;999.90;;
31091;SDS011;67728;53.122;12.776;2023-09-19T05:19:37;1440.23;;;999.90;;
31091;SDS011;67728;53.122;12.776;2023-09-19T05:21:08;1432.77;;;999.90;;
31091;SDS011;67728;53.122;12.776;2023-09-19T05:22:41;1444.27;;;999.90;;
31091;SDS011;67728;53.122;12.776;2023-09-19T05:24:13;1438.70;;;999.90;;
31091;SDS011;67728;53.122;12.776;2023-09-19T05:25:44;1443.10;;;999.90;;
31091;SDS011;67728;53.122;12.776;2023-09-19T05:27:15;1439.83;;;999.90;;
31091;SDS011;67728;53.122;12.776;2023-09-19T05:28:47;1428.03;;;999.90;;
31091;SDS011;67728;53.122;12.776;2023-09-19T05:30:18;1426.10;;;999.90;;
31091;SDS011;67728;53.122;12.776;2023-09-19T05:31:50;1421.17;;;999.90;;
31091;SDS011;67728;53.122;12.776;2023-09-19T05:33:23;1420.87;;;999.90;;
31091;SDS011;67728;53.122;12.776;2023-09-19T05:34:55;1425.30;;;999.90;;
31091;SDS011;67728;53.122;12.776;2023-09-19T05:36:26;1429.97;;;999.90;;
31091;SDS011;67728;53.122;12.776;2023-09-19T05:38:01;1430.70;;;999.90;;
31091;SDS011;67728;53.122;12.776;2023-09-19T05:39:31;1423.53;;;999.90;;
31091;SDS011;67728;53.122;12.776;2023-09-19T05:41:03;1430.60;;;999.90;;
31091;SDS011;67728;53.122;12.776;2023-09-19T05:42:34;1437.20;;;999.90;;
31091;SDS011;67728;53.122;12.776;2023-09-19T05:44:05;1436.10;;;999.90;;
31091;SDS011;67728;53.122;12.776;2023-09-19T05:45:38;1441.87;;;999.90;;
31091;SDS011;67728;53.122;12.776;2023-09-19T05:47:08;1463.03;;;999.90;;
31091;SDS011;67728;53.122;12.776;2023-09-19T05:48:40;1437.30;;;999.90;;
31091;SDS011;67728;53.122;12.776;2023-09-19T05:50:14;1471.23;;;999.90;;
31091;SDS011;67728;53.122;12.776;2023-09-19T05:51:46;1457.63;;;999.90;;
31091;SDS011;67728;53.122;12.776;2023-09-19T05:53:19;1449.23;;;999.90;;
31091;SDS011;67728;53.122;12.776;2023-09-19T05:54:50;1446.83;;;999.90;;
31091;SDS011;67728;53.122;12.776;2023-09-19T05:56:21;1457.77;;;999.90;;
31091;SDS011;67728;53.122;12.776;2023-09-19T05:57:52;1464.40;;;999.90;;
31091;SDS011;67728;53.122;12.776;2023-09-19T05:59:24;1503.07;;;999.90;;
31091;SDS011;67728;53.122;12.776;2023-09-19T06:00:56;1509.77;;;999.90;;
31091;SDS011;67728;53.122;12.776;2023-09-19T06:02:27;1355.27;;;999.90;;
31091;SDS011;67728;53.122;12.776;2023-09-19T06:04:00;1349.50;;;999.90;;
31091;SDS011;67728;53.122;12.776;2023-09-19T06:05:31;1353.00;;;999.90;;
31091;SDS011;67728;53.122;12.776;2023-09-19T06:07:02;1353.93;;;999.90;;
31091;SDS011;67728;53.122;12.776;2023-09-19T06:08:36;1346.03;;;999.90;;
31091;SDS011;67728;53.122;12.776;2023-09-19T06:10:07;1351.73;;;999.90;;
31091;SDS011;67728;53.122;12.776;2023-09-19T06:11:41;1350.97;;;999.90;;
31091;SDS011;67728;53.122;12.776;2023-09-19T06:13:12;1357.00;;;999.90;;
31091;SDS011;67728;53.122;12.776;2023-09-19T06:14:43;1354.43;;;999.90;;
31091;SDS011;67728;53.122;12.776;2023-09-19T06:16:14;1370.23;;;999.90;;
31091;SDS011;67728;53.122;12.776;2023-09-19T06:17:46;1385.83;;;999.90;;
31091;SDS011;67728;53.122;12.776;2023-09-19T06:19:18;1413.97;;;999.90;;
31091;SDS011;67728;53.122;12.776;2023-09-19T06:20:52;1393.97;;;999.90;;
31091;SDS011;67728;53.122;12.776;2023-09-19T06:22:24;1439.87;;;999.90;;
31091;SDS011;67728;53.122;12.776;2023-09-19T06:23:56;1372.10;;;999.90;;
31091;SDS011;67728;53.122;12.776;2023-09-19T06:25:28;1381.40;;;999.90;;
31091;SDS011;67728;53.122;12.776;2023-09-19T06:26:58;1370.80;;;999.90;;
31091;SDS011;67728;53.122;12.776;2023-09-19T06:28:31;1375.77;;;999.90;;
31091;SDS011;67728;53.122;12.776;2023-09-19T06:30:04;1383.00;;;999.90;;
31091;SDS011;67728;53.122;12.776;2023-09-19T06:31:38;1373.33;;;999.90;;
31091;SDS011;67728;53.122;12.776;2023-09-19T06:33:09;1362.67;;;999.90;;
31091;SDS011;67728;53.122;12.776;2023-09-19T06:34:41;1352.80;;;999.90;;
31091;SDS011;67728;53.122;12.776;2023-09-19T06:36:13;1347.40;;;999.90;;
31091;SDS011;67728;53.122;12.776;2023-09-19T06:37:45;1351.67;;;999.90;;
31091;SDS011;67728;53.122;12.776;2023-09-19T06:39:17;1356.80;;;999.90;;
31091;SDS011;67728;53.122;12.776;2023-09-19T06:40:48;1346.77;;;999.90;;
31091;SDS011;67728;53.122;12.776;2023-09-19T06:42:19;1349.53;;;999.90;;
31091;SDS011;67728;53.122;12.776;2023-09-19T06:43:52;1351.73;;;999.90;;
31091;SDS011;67728;53.122;12.776;2023-09-19T06:45:24;1356.13;;;999.90;;
31091;SDS011;67728;53.122;12.776;2023-09-19T06:46:56;1350.63;;;999.90;;
31091;SDS011;67728;53.122;12.776;2023-09-19T06:48:28;1355.47;;;999.90;;
31091;SDS011;67728;53.122;12.776;2023-09-19T06:50:00;1364.27;;;999.90;;
31091;SDS011;67728;53.122;12.776;2023-09-19T06:51:32;1357.43;;;999.90;;
31091;SDS011;67728;53.122;12.776;2023-09-19T06:53:06;1357.43;;;999.90;;
31091;SDS011;67728;53.122;12.776;2023-09-19T06:54:38;1368.53;;;999.90;;
31091;SDS011;67728;53.122;12.776;2023-09-19T06:56:10;1361.50;;;999.90;;
31091;SDS011;67728;53.122;12.776;2023-09-19T06:57:41;1383.50;;;999.90;;
31091;SDS011;67728;53.122;12.776;2023-09-19T06:59:13;1367.23;;;999.90;;
31091;SDS011;67728;53.122;12.776;2023-09-19T07:00:45;1414.33;;;999.90;;
31091;SDS011;67728;53.122;12.776;2023-09-19T07:02:16;1362.37;;;999.90;;
31091;SDS011;67728;53.122;12.776;2023-09-19T07:03:48;1358.17;;;999.90;;
31091;SDS011;67728;53.122;12.776;2023-09-19T07:05:18;1364.70;;;999.90;;
31091;SDS011;67728;53.122;12.776;2023-09-19T07:06:51;1371.57;;;999.90;;
31091;SDS011;67728;53.122;12.776;2023-09-19T07:08:22;1389.53;;;999.90;;
31091;SDS011;67728;53.122;12.776;2023-09-19T07:09:55;1385.27;;;999.90;;
31091;SDS011;67728;53.122;12.776;2023-09-19T07:11:26;1370.53;;;999.90;;
31091;SDS011;67728;53.122;12.776;2023-09-19T07:12:58;1384.77;;;999.90;;
31091;SDS011;67728;53.122;12.776;2023-09-19T07:14:29;1441.17;;;999.90;;
31091;SDS011;67728;53.122;12.776;2023-09-19T07:16:01;1402.73;;;999.90;;
31091;SDS011;67728;53.122;12.776;2023-09-19T07:17:31;1398.10;;;999.90;;
31091;SDS011;67728;53.122;12.776;2023-09-19T07:19:03;1382.30;;;999.90;;
31091;SDS011;67728;53.122;12.776;2023-09-19T07:20:35;1393.50;;;999.90;;
31091;SDS011;67728;53.122;12.776;2023-09-19T07:22:06;1399.53;;;999.90;;
31091;SDS011;67728;53.122;12.776;2023-09-19T07:23:38;1388.40;;;999.90;;
31091;SDS011;67728;53.122;12.776;2023-09-19T07:25:10;1422.47;;;999.90;;
31091;SDS011;67728;53.122;12.776;2023-09-19T07:26:41;1376.03;;;999.90;;
31091;SDS011;67728;53.122;12.776;2023-09-19T07:28:12;1418.10;;;999.90;;
31091;SDS011;67728;53.122;12.776;2023-09-19T07:29:44;1400.20;;;999.90;;
31091;SDS011;67728;53.122;12.776;2023-09-19T07:31:15;1374.67;;;999.90;;
31091;SDS011;67728;53.122;12.776;2023-09-19T07:32:48;1391.33;;;999.90;;
31091;SDS011;67728;53.122;12.776;2023-09-19T07:34:18;1439.20;;;999.90;;
31091;SDS011;67728;53.122;12.776;2023-09-19T07:35:51;1401.03;;;999.90;;
31091;SDS011;67728;53.122;12.776;2023-09-19T07:37:22;1406.50;;;999.90;;
31091;SDS011;67728;53.122;12.776;2023-09-19T07:38:55;1398.93;;;999.90;;
31091;SDS011;67728;53.122;12.776;2023-09-19T07:40:29;1481.30;;;999.90;;
31091;SDS011;67728;53.122;12.776;2023-09-19T07:42:01;1398.90;;;999.90;;
31091;SDS011;67728;53.122;12.776;2023-09-19T07:43:31;1413.83;;;999.90;;
31091;SDS011;67728;53.122;12.776;2023-09-19T07:45:03;1391.73;;;999.90;;
31091;SDS011;67728;53.122;12.776;2023-09-19T07:46:35;1477.00;;;999.90;;
31091;SDS011;67728;53.122;12.776;2023-09-19T07:48:09;1398.73;;;999.90;;
31091;SDS011;67728;53.122;12.776;2023-09-19T07:49:46;1421.80;;;999.90;;
31091;SDS011;67728;53.122;12.776;2023-09-19T07:51:18;1436.27;;;999.90;;
31091;SDS011;67728;53.122;12.776;2023-09-19T07:52:50;1477.87;;;999.90;;
31091;SDS011;67728;53.122;12.776;2023-09-19T07:54:22;1431.90;;;999.90;;
31091;SDS011;67728;53.122;12.776;2023-09-19T07:56:02;1419.90;;;999.90;;
31091;SDS011;67728;53.122;12.776;2023-09-19T07:57:34;1426.70;;;999.90;;
31091;SDS011;67728;53.122;12.776;2023-09-19T07:59:07;1507.07;;;999.90;;
31091;SDS011;67728;53.122;12.776;2023-09-19T08:00:40;1412.67;;;999.90;;
31091;SDS011;67728;53.122;12.776;2023-09-19T08:02:12;1415.87;;;999.90;;
31091;SDS011;67728;53.122;12.776;2023-09-19T08:03:45;1414.47;;;999.90;;
31091;SDS011;67728;53.122;12.776;2023-09-19T08:05:19;1464.37;;;999.90;;
31091;SDS011;67728;53.122;12.776;2023-09-19T08:06:54;1386.50;;;999.90;;
31091;SDS011;67728;53.122;12.776;2023-09-19T08:08:26;1412.33;;;999.90;;
31091;SDS011;67728;53.122;12.776;2023-09-19T08:09:58;1413.50;;;999.90;;
31091;SDS011;67728;53.122;12.776;2023-09-19T08:11:30;1387.17;;;999.90;;
31091;SDS011;67728;53.122;12.776;2023-09-19T08:13:03;1405.50;;;999.90;;
31091;SDS011;67728;53.122;12.776;2023-09-19T08:14:34;1421.97;;;999.90;;
31091;SDS011;67728;53.122;12.776;2023-09-19T08:16:06;1424.03;;;999.90;;
31091;SDS011;67728;53.122;12.776;2023-09-19T08:17:37;1409.80;;;999.90;;
31091;SDS011;67728;53.122;12.776;2023-09-19T08:19:09;1411.67;;;999.90;;
31091;SDS011;67728;53.122;12.776;2023-09-19T08:20:41;1424.17;;;999.90;;
31091;SDS011;67728;53.122;12.776;2023-09-19T08:22:16;1414.07;;;999.90;;
31091;SDS011;67728;53.122;12.776;2023-09-19T08:23:47;1520.30;;;999.90;;
31091;SDS011;67728;53.122;12.776;2023-09-19T08:25:19;1394.87;;;999.90;;
31091;SDS011;67728;53.122;12.776;2023-09-19T08:26:53;1374.23;;;999.90;;
31091;SDS011;67728;53.122;12.776;2023-09-19T08:28:26;1386.80;;;999.90;;
31091;SDS011;67728;53.122;12.776;2023-09-19T08:29:59;1390.90;;;999.90;;
31091;SDS011;67728;53.122;12.776;2023-09-19T08:31:32;1384.37;;;999.90;;
31091;SDS011;67728;53.122;12.776;2023-09-19T08:33:05;1391.90;;;999.90;;
31091;SDS011;67728;53.122;12.776;2023-09-19T08:34:36;1390.47;;;999.90;;
31091;SDS011;67728;53.122;12.776;2023-09-19T08:36:08;1385.43;;;999.90;;